createdAt,value
2019-04-23T00:00:03.466Z,13.70
2019-04-23T00:02:53.416Z,13.50
2019-04-23T00:05:33.217Z,13.83
2019-04-23T00:10:25.238Z,9.13
2019-04-23T00:15:20.265Z,12.97
2019-04-23T00:18:12.216Z,14.80
2019-04-23T00:20:23.639Z,11.63
2019-04-23T00:23:00.153Z,15.97
2019-04-23T00:25:47.085Z,9.43
2019-04-23T00:28:06.528Z,11.57
2019-04-23T00:33:05.342Z,10.87
2019-04-23T00:35:32.421Z,14.83
2019-04-23T00:38:12.177Z,11.27
2019-04-23T00:43:08.638Z,13.10
2019-04-23T00:45:42.577Z,9.80
2019-04-23T00:48:14.873Z,12.30
2019-04-23T00:50:44.959Z,14.53
2019-04-23T00:53:13.831Z,14.53
2019-04-23T00:55:44.681Z,16.87
2019-04-23T00:58:12.545Z,14.47
2019-04-23T01:00:48.979Z,11.30
2019-04-23T01:03:12.134Z,11.53
2019-04-23T01:05:42.564Z,16.17
2019-04-23T01:08:12.873Z,12.93
2019-04-23T01:10:57.140Z,12.93
2019-04-23T01:13:31.789Z,12.90
2019-04-23T01:15:52.384Z,11.33
2019-04-23T01:18:37.849Z,15.17
2019-04-23T01:20:53.631Z,11.00
2019-04-23T01:23:37.773Z,11.77
2019-04-23T01:26:21.270Z,13.93
2019-04-23T01:28:55.584Z,16.73
2019-04-23T01:31:31.901Z,12.53
2019-04-23T01:33:59.445Z,14.63
2019-04-23T01:36:36.199Z,11.17
2019-04-23T01:39:02.062Z,12.83
2019-04-23T01:41:28.995Z,14.70
2019-04-23T01:43:54.900Z,15.87
2019-04-23T01:46:28.725Z,11.57
2019-04-23T01:48:58.156Z,9.70
2019-04-23T01:51:35.992Z,16.90
2019-04-23T01:53:56.952Z,11.27
2019-04-23T01:56:28.466Z,14.17
2019-04-23T01:59:00.245Z,13.97
2019-04-23T02:04:03.524Z,11.97
2019-04-23T02:06:31.387Z,13.47
2019-04-23T02:08:58.792Z,13.37
2019-04-23T02:11:34.165Z,14.43
2019-04-23T02:14:05.449Z,12.60
2019-04-23T02:19:07.746Z,10.57
2019-04-23T02:21:41.488Z,12.53
2019-04-23T02:24:08.656Z,15.07
2019-04-23T02:26:35.656Z,12.87
2019-04-23T02:29:26.631Z,11.77
2019-04-23T02:31:48.935Z,14.50
2019-04-23T02:34:29.254Z,16.53
2019-04-23T02:36:48.825Z,11.73
2019-04-23T02:39:01.049Z,12.70
2019-04-23T02:44:17.058Z,10.40
2019-04-23T02:46:41.541Z,15.23
2019-04-23T02:49:17.733Z,16.90
2019-04-23T02:51:54.458Z,15.20
2019-04-23T02:54:26.745Z,14.30
2019-04-23T02:59:20.737Z,14.40
2019-04-23T03:01:45.477Z,13.43
2019-04-23T03:04:19.778Z,14.43
2019-04-23T03:06:55.563Z,11.43
2019-04-23T03:09:27.726Z,12.67
2019-04-23T03:11:47.907Z,14.53
2019-04-23T03:14:18.560Z,12.80
2019-04-23T03:16:54.978Z,11.17
2019-04-23T03:27:17.076Z,14.20
2019-04-23T03:37:20.075Z,13.03
2019-04-23T03:47:11.312Z,14.80
2019-04-23T04:04:39.084Z,24.23
2019-04-23T04:07:22.085Z,12.33
2019-04-23T04:12:31.665Z,23.77
2019-04-23T04:17:17.901Z,13.60
2019-04-23T04:24:39.878Z,12.00
2019-04-23T04:27:19.513Z,11.93
2019-04-23T04:32:01.955Z,14.83
2019-04-23T04:35:11.166Z,12.40
2019-04-23T04:37:37.682Z,11.43
2019-04-23T04:40:08.296Z,14.10
2019-04-23T04:42:27.455Z,12.27
2019-04-23T04:45:00.762Z,33.60
2019-04-23T04:47:21.507Z,11.67
2019-04-23T04:49:54.137Z,12.83
2019-04-23T04:52:38.339Z,12.27
2019-04-23T04:54:30.990Z,12.33
2019-04-23T04:57:20.837Z,14.17
2019-04-23T04:59:55.542Z,10.67
2019-04-23T05:02:39.639Z,10.83
2019-04-23T05:04:57.816Z,14.63
2019-04-23T05:07:23.759Z,11.10
2019-04-23T05:10:08.040Z,11.73
2019-04-23T05:14:54.499Z,12.37
2019-04-23T05:17:30.065Z,10.67
2019-04-23T05:22:40.796Z,12.10
2019-04-23T05:24:57.115Z,13.80
2019-04-23T05:27:42.710Z,9.90
2019-04-23T05:30:07.834Z,11.12
2019-04-23T05:32:34.301Z,11.57
2019-04-23T05:35:06.770Z,10.47
2019-04-23T05:37:48.949Z,14.07
2019-04-23T05:40:02.726Z,15.33
2019-04-23T05:42:32.028Z,7.90
2019-04-23T05:45:06.499Z,10.50
2019-04-23T05:47:59.027Z,10.83
2019-04-23T05:50:15.596Z,11.90
2019-04-23T05:52:39.689Z,11.20
2019-04-23T05:55:12.045Z,11.83
2019-04-23T05:57:36.902Z,13.73
2019-04-23T06:00:02.507Z,12.83
2019-04-23T06:02:45.828Z,12.30
2019-04-23T06:07:39.312Z,14.03
2019-04-23T06:10:06.404Z,12.23
2019-04-23T06:15:07.734Z,10.27
2019-04-23T06:17:56.350Z,10.53
2019-04-23T06:20:11.422Z,12.07
2019-04-23T06:25:14.995Z,15.03
2019-04-23T06:27:39.723Z,11.97
2019-04-23T06:30:04.515Z,11.13
2019-04-23T06:32:37.184Z,14.37
2019-04-23T06:35:06.333Z,10.67
2019-04-23T06:38:14.682Z,8.97
2019-04-23T06:40:12.133Z,8.67
2019-04-23T06:42:34.658Z,11.80
2019-04-23T06:45:06.312Z,12.70
2019-04-23T06:48:01.871Z,11.13
2019-04-23T06:50:06.348Z,10.70
2019-04-23T06:52:31.543Z,10.57
2019-04-23T06:55:30.208Z,13.37
2019-04-23T06:57:39.701Z,8.17
2019-04-23T07:00:13.830Z,11.17
2019-04-23T07:02:51.279Z,8.70
2019-04-23T07:05:15.887Z,13.77
2019-04-23T07:07:52.733Z,14.23
2019-04-23T07:15:32.266Z,9.33
2019-04-23T07:17:41.059Z,10.40
2019-04-23T07:20:15.284Z,9.60
2019-04-23T07:22:54.007Z,8.30
2019-04-23T07:25:15.399Z,12.53
2019-04-23T07:27:43.211Z,10.37
2019-04-23T07:35:13.394Z,9.63
2019-04-23T07:37:47.492Z,8.30
2019-04-23T07:43:18.614Z,10.60
2019-04-23T07:46:12.176Z,11.77
2019-04-23T07:48:28.818Z,7.83
2019-04-23T07:51:00.521Z,10.47
2019-04-23T07:53:52.113Z,8.97
2019-04-23T07:56:07.524Z,12.53
2019-04-23T07:58:46.442Z,7.43
2019-04-23T08:01:06.921Z,15.00
2019-04-23T08:03:39.829Z,14.00
2019-04-23T08:06:01.027Z,10.50
2019-04-23T08:08:39.351Z,11.83
2019-04-23T08:13:55.671Z,13.10
2019-04-23T08:16:24.695Z,12.43
2019-04-23T08:18:45.314Z,9.20
2019-04-23T08:23:50.689Z,11.70
2019-04-23T08:31:40.269Z,8.07
2019-04-23T08:34:20.133Z,7.53
2019-04-23T08:36:44.463Z,14.17
2019-04-23T08:39:07.050Z,9.90
2019-04-23T08:41:46.067Z,12.00
2019-04-23T08:44:21.482Z,9.77
2019-04-23T08:46:56.766Z,8.20
2019-04-23T08:49:29.020Z,8.50
2019-04-23T08:54:38.406Z,11.60
2019-04-23T08:56:55.257Z,6.50
2019-04-23T08:59:33.213Z,11.67
2019-04-23T09:02:06.938Z,8.60
2019-04-23T09:04:24.018Z,12.57
2019-04-23T09:07:00.554Z,12.37
2019-04-23T09:09:29.075Z,8.17
2019-04-23T09:14:18.794Z,13.23
2019-04-23T09:16:59.472Z,14.10
2019-04-23T09:19:41.186Z,11.07
2019-04-23T09:22:00.535Z,19.03
2019-04-23T09:24:29.588Z,10.43
2019-04-23T09:26:58.568Z,8.33
2019-04-23T09:29:37.879Z,7.83
2019-04-23T09:34:54.142Z,27.50
2019-04-23T09:37:26.808Z,6.63
2019-04-23T09:40:10.874Z,6.50
2019-04-23T09:42:54.479Z,7.43
2019-04-23T09:45:23.299Z,9.70
2019-04-23T09:50:29.248Z,8.70
2019-04-23T09:53:06.405Z,7.90
2019-04-23T10:02:51.550Z,10.80
2019-04-23T10:05:14.052Z,10.90
2019-04-23T10:07:44.521Z,8.67
2019-04-23T10:10:01.614Z,10.13
2019-04-23T10:12:30.347Z,11.23
2019-04-23T10:15:08.077Z,11.13
2019-04-23T10:17:28.979Z,12.50
2019-04-23T10:19:58.317Z,18.13
2019-04-23T10:22:27.273Z,8.07
2019-04-23T10:24:57.170Z,12.97
2019-04-23T10:27:27.231Z,8.43
2019-04-23T10:29:56.150Z,9.33
2019-04-23T10:32:25.436Z,10.27
2019-04-23T10:35:07.849Z,11.10
2019-04-23T10:37:34.295Z,10.70
2019-04-23T10:39:58.750Z,12.77
2019-04-23T10:42:25.395Z,10.87
2019-04-23T10:45:26.839Z,11.47
2019-04-23T10:48:24.955Z,14.00
2019-04-23T10:53:26.569Z,11.73
2019-04-23T10:55:54.228Z,6.57
2019-04-23T11:00:55.673Z,16.17
2019-04-23T11:03:43.670Z,19.63
2019-04-23T11:05:58.882Z,15.20
2019-04-23T11:08:17.404Z,10.73
2019-04-23T11:10:52.567Z,12.40
2019-04-23T11:13:40.991Z,13.80
2019-04-23T11:18:45.018Z,14.87
2019-04-23T11:21:05.379Z,11.07
2019-04-23T11:23:34.346Z,14.30
2019-04-23T11:26:07.075Z,7.10
2019-04-23T11:28:36.289Z,8.77
2019-04-23T11:31:25.965Z,9.43
2019-04-23T11:33:50.630Z,9.80
2019-04-23T11:36:46.512Z,15.33
2019-04-23T11:38:53.284Z,11.40
2019-04-23T11:41:25.147Z,9.23
2019-04-23T11:43:50.776Z,9.20
2019-04-23T11:46:33.915Z,11.63
2019-04-23T11:49:06.196Z,14.23
2019-04-23T11:53:48.218Z,9.13
2019-04-23T11:56:35.360Z,8.63
2019-04-23T11:58:47.626Z,9.50
2019-04-23T12:04:14.683Z,14.67
2019-04-23T12:06:42.435Z,12.43
2019-04-23T12:09:26.383Z,11.00
2019-04-23T12:12:02.375Z,13.53
2019-04-23T12:14:30.202Z,15.43
2019-04-23T12:24:58.600Z,15.93
2019-04-23T12:27:25.331Z,11.63
2019-04-23T12:35:04.356Z,15.23
2019-04-23T12:40:19.913Z,14.87
2019-04-23T12:45:22.038Z,17.60
2019-04-23T12:47:50.499Z,19.70
2019-04-23T12:50:40.730Z,17.07
2019-04-23T12:52:47.662Z,13.33
2019-04-23T12:55:22.384Z,14.90
2019-04-23T12:57:49.021Z,13.10
2019-04-23T13:00:18.004Z,16.70
2019-04-23T13:02:44.183Z,17.50
2019-04-23T13:05:18.139Z,21.57
2019-04-23T13:07:43.289Z,17.67
2019-04-23T13:10:15.846Z,19.77
2019-04-23T13:15:17.319Z,14.77
2019-04-23T13:17:52.427Z,18.93
2019-04-23T13:20:19.481Z,18.30
2019-04-23T13:22:48.756Z,19.27
2019-04-23T13:25:35.125Z,17.03
2019-04-23T13:30:37.646Z,15.30
2019-04-23T13:33:12.553Z,21.23
2019-04-23T13:35:45.381Z,15.33
2019-04-23T13:38:38.505Z,15.70
2019-04-23T13:40:42.126Z,21.33
2019-04-23T13:43:14.052Z,17.20
2019-04-23T13:46:00.015Z,19.33
2019-04-23T13:48:13.169Z,8.80
2019-04-23T13:50:49.626Z,14.97
2019-04-23T13:53:18.385Z,14.20
2019-04-23T13:55:40.947Z,18.83
2019-04-23T13:58:21.540Z,11.47
2019-04-23T14:00:52.375Z,12.77
2019-04-23T14:03:09.679Z,12.13
2019-04-23T14:06:04.882Z,7.57
2019-04-23T14:08:39.323Z,12.23
2019-04-23T14:10:55.401Z,12.67
2019-04-23T14:21:17.246Z,18.03
2019-04-23T14:23:55.851Z,17.20
2019-04-23T14:26:15.911Z,13.43
2019-04-23T14:31:04.791Z,12.00
2019-04-23T14:34:00.816Z,11.67
2019-04-23T14:36:07.808Z,13.60
2019-04-23T14:38:40.435Z,15.00
2019-04-23T14:51:14.936Z,13.77
2019-04-23T14:53:40.945Z,13.10
2019-04-23T14:56:14.746Z,15.43
2019-04-23T15:03:46.879Z,16.47
2019-04-23T15:06:26.335Z,13.80
2019-04-23T15:13:44.790Z,14.47
2019-04-23T15:16:19.941Z,9.17
2019-04-23T15:24:04.206Z,17.40
2019-04-23T15:28:36.248Z,14.93
2019-04-23T15:31:32.884Z,13.27
2019-04-23T15:34:03.774Z,13.17
2019-04-23T15:39:04.202Z,13.70
2019-04-23T15:41:34.595Z,13.70
2019-04-23T15:44:06.033Z,10.97
2019-04-23T15:49:17.275Z,15.00
2019-04-23T15:51:35.745Z,13.50
2019-04-23T15:53:56.797Z,16.03
2019-04-23T15:56:35.617Z,14.30
2019-04-23T16:01:29.048Z,15.07
2019-04-23T16:03:30.181Z,12.63
2019-04-23T16:05:59.582Z,14.53
2019-04-23T16:09:05.511Z,10.97
2019-04-23T16:14:11.636Z,12.73
2019-04-23T16:16:29.869Z,14.03
2019-04-23T16:19:07.715Z,15.63
2019-04-23T16:24:07.239Z,11.37
2019-04-23T16:26:37.361Z,18.27
2019-04-23T16:36:38.900Z,20.57
2019-04-23T16:39:11.935Z,17.00
2019-04-23T16:41:52.177Z,14.23
2019-04-23T16:44:18.405Z,15.13
2019-04-23T16:46:44.325Z,11.97
2019-04-23T16:51:38.795Z,14.57
2019-04-23T16:54:19.638Z,15.13
2019-04-23T16:57:00.483Z,12.60
2019-04-23T17:01:46.351Z,12.77
2019-04-23T17:04:19.608Z,13.50
2019-04-23T17:06:48.970Z,12.47
2019-04-23T17:09:37.069Z,12.37
2019-04-23T17:11:41.681Z,11.33
2019-04-23T17:14:13.485Z,13.47
2019-04-23T17:16:40.133Z,11.73
2019-04-23T17:21:44.010Z,14.80
2019-04-23T17:24:21.243Z,10.47
2019-04-23T17:26:46.043Z,9.93
2019-04-23T17:31:38.366Z,7.97
2019-04-23T17:34:24.379Z,9.03
2019-04-23T17:39:28.125Z,12.27
2019-04-23T17:42:18.246Z,9.67
2019-04-23T17:45:00.069Z,8.23
2019-04-23T17:47:07.019Z,16.70
2019-04-23T17:49:36.773Z,10.13
2019-04-23T17:52:05.098Z,13.63
2019-04-23T17:54:32.204Z,10.80
2019-04-23T17:57:07.630Z,8.63
2019-04-23T18:00:04.862Z,8.90
2019-04-23T18:02:53.304Z,16.43
2019-04-23T18:07:39.642Z,8.13
2019-04-23T18:14:59.363Z,5.83
2019-04-23T18:17:26.715Z,9.33
2019-04-23T18:20:04.739Z,6.53
2019-04-23T18:27:52.898Z,6.00
2019-04-23T18:30:21.478Z,5.10
2019-04-23T18:33:44.999Z,8.00
2019-04-23T18:38:16.042Z,10.80
2019-04-23T18:40:58.230Z,8.80
2019-04-23T18:43:20.647Z,7.77
2019-04-23T18:45:49.388Z,8.03
2019-04-23T18:56:06.298Z,11.43
2019-04-23T18:58:47.175Z,6.23
2019-04-23T19:01:08.696Z,8.53
2019-04-23T19:03:50.938Z,9.07
2019-04-23T19:06:30.417Z,7.53
2019-04-23T19:09:16.382Z,5.97
2019-04-23T19:12:05.106Z,7.43
2019-04-23T19:14:35.191Z,7.97
2019-04-23T19:19:29.041Z,6.93
2019-04-23T19:22:14.345Z,9.07
2019-04-23T19:25:03.593Z,9.43
2019-04-23T19:29:42.739Z,8.23
2019-04-23T19:31:56.788Z,5.80
2019-04-23T19:34:35.666Z,7.60
2019-04-23T19:42:03.730Z,9.03
2019-04-23T19:44:41.278Z,10.43
2019-04-23T19:57:02.022Z,9.63
2019-04-23T19:59:47.608Z,7.10
2019-04-23T20:02:10.518Z,6.40
2019-04-23T20:04:42.905Z,7.07
2019-04-23T20:16:05.373Z,7.77
2019-04-23T20:18:33.829Z,6.27
2019-04-23T20:20:55.134Z,5.80
2019-04-23T20:23:47.545Z,5.30
2019-04-23T20:29:03.318Z,6.07
2019-04-23T20:36:40.121Z,5.17
2019-04-23T20:44:50.378Z,5.03
2019-04-23T20:47:10.138Z,7.60
2019-04-23T20:49:40.782Z,5.93
2019-04-23T20:54:44.406Z,5.97
2019-04-23T20:57:23.209Z,4.83
2019-04-23T21:00:00.131Z,3.53
2019-04-23T21:02:33.765Z,3.63
2019-04-23T21:04:57.290Z,4.30
2019-04-23T21:07:30.922Z,5.00
2019-04-23T21:10:11.155Z,7.60
2019-04-23T21:12:35.678Z,4.30
2019-04-23T21:15:05.297Z,3.47
2019-04-23T21:17:26.842Z,5.60
2019-04-23T21:20:00.905Z,4.77
2019-04-23T21:27:38.667Z,5.37
2019-04-23T21:29:58.598Z,4.63
2019-04-23T21:32:35.534Z,3.80
2019-04-23T21:35:05.303Z,4.00
2019-04-23T21:37:42.845Z,3.67
2019-04-23T21:40:28.543Z,4.60
2019-04-23T21:43:01.213Z,4.00
2019-04-23T21:45:25.866Z,3.40
2019-04-23T21:48:04.343Z,3.47
2019-04-23T21:50:39.481Z,3.30
2019-04-23T21:52:54.101Z,4.03
2019-04-23T21:55:36.482Z,4.23
2019-04-23T22:00:34.668Z,3.30
2019-04-23T22:03:06.722Z,3.10
2019-04-23T22:05:39.954Z,2.80
2019-04-23T22:10:27.806Z,2.93
2019-04-23T22:15:34.453Z,4.27
2019-04-23T22:18:12.715Z,2.50
2019-04-23T22:23:05.463Z,3.47
2019-04-23T22:25:36.818Z,3.13
2019-04-23T22:28:08.286Z,3.43
2019-04-23T22:30:30.811Z,3.23
2019-04-23T22:33:07.593Z,5.53
2019-04-23T22:35:35.103Z,4.00
2019-04-23T22:38:09.068Z,4.10
2019-04-23T22:40:25.282Z,4.77
2019-04-23T22:45:40.278Z,4.17
2019-04-23T22:48:02.983Z,4.08
2019-04-23T22:50:39.881Z,4.40
2019-04-23T22:55:40.544Z,3.95
2019-04-23T23:00:33.551Z,4.60
2019-04-23T23:03:27.175Z,5.77
2019-04-23T23:08:57.443Z,3.90
2019-04-23T23:10:56.986Z,3.87
2019-04-23T23:13:35.353Z,4.27
2019-04-23T23:16:02.030Z,3.53
2019-04-23T23:18:22.974Z,5.17
2019-04-23T23:21:00.281Z,6.30
2019-04-23T23:23:30.253Z,4.97
2019-04-23T23:26:02.383Z,7.07
2019-04-23T23:28:38.110Z,5.97
2019-04-23T23:33:30.570Z,6.07
2019-04-23T23:36:15.043Z,5.97
2019-04-23T23:38:33.269Z,4.93
2019-04-23T23:46:24.354Z,3.33
2019-04-23T23:48:27.992Z,4.27
2019-04-23T23:53:40.556Z,6.60
2019-04-23T23:56:10.811Z,8.03
